Time;durP1;ratioP1;P1;durP2;ratioP2;P2;SDS_P1;SDS_P2;PMS_P1;PMS_P2;Temp;Humidity;BMP_temperature;BMP_pressure;BME280_temperature;BME280_humidity;BME280_pressure;Samples;Min_cycle;Max_cycle;Signal;HPM_P1;HPM_P2
2022/08/18 00:00:20;;;;;;;5.18;4.00;;;;;;;;;;5052328;28;20040;-39
2022/08/18 00:02:45;;;;;;;5.28;3.90;;;;;;;;;;5052170;28;20075;-39
2022/08/18 00:05:13;;;;;;;9.13;3.88;;;;;;;;;;5052302;28;20021;-39
2022/08/18 00:07:39;;;;;;;3.85;3.45;;;;;;;;;;5056270;28;20489;-40
2022/08/18 00:10:05;;;;;;;4.43;3.60;;;;;;;;;;5041285;28;20036;-39
2022/08/18 00:12:37;;;;;;;10.60;3.85;;;;;;;;;;5059085;28;20029;-41
2022/08/18 00:15:07;;;;;;;4.97;4.28;;;;;;;;;;5058907;28;20102;-39
2022/08/18 00:17:33;;;;;;;10.02;3.97;;;;;;;;;;5059283;28;20108;-39
2022/08/18 00:20:00;;;;;;;6.90;3.75;;;;;;;;;;5058759;28;20040;-39
2022/08/18 00:22:25;;;;;;;7.05;4.00;;;;;;;;;;5041246;28;20404;-39
2022/08/18 00:24:54;;;;;;;7.22;3.50;;;;;;;;;;5058669;28;20032;-39
2022/08/18 00:27:30;;;;;;;6.15;4.03;;;;;;;;;;5058657;28;20029;-39
2022/08/18 00:29:59;;;;;;;4.93;3.95;;;;;;;;;;5058687;28;20477;-40
2022/08/18 00:32:28;;;;;;;5.65;3.80;;;;;;;;;;5058581;28;20032;-39
2022/08/18 00:34:54;;;;;;;7.38;3.85;;;;;;;;;;5058565;28;20020;-39
2022/08/18 00:37:21;;;;;;;6.05;3.75;;;;;;;;;;5058331;28;20131;-39
2022/08/18 00:39:48;;;;;;;7.20;3.60;;;;;;;;;;5058614;28;20521;-39
2022/08/18 00:42:39;;;;;;;8.52;3.83;;;;;;;;;;5058624;28;20100;-39
2022/08/18 00:45:05;;;;;;;5.05;3.47;;;;;;;;;;5058574;28;20031;-40
2022/08/18 00:47:31;;;;;;;6.63;3.60;;;;;;;;;;5058809;28;20060;-39
2022/08/18 00:49:57;;;;;;;9.35;4.40;;;;;;;;;;5058528;28;20021;-39
2022/08/18 00:52:24;;;;;;;4.00;3.40;;;;;;;;;;5058531;28;20036;-39
2022/08/18 00:54:51;;;;;;;6.20;4.15;;;;;;;;;;5024168;28;20094;-39
2022/08/18 00:57:20;;;;;;;7.53;3.65;;;;;;;;;;5058401;28;20029;-39
2022/08/18 00:59:48;;;;;;;9.02;4.70;;;;;;;;;;5058475;28;20021;-40
2022/08/18 01:02:22;;;;;;;5.93;3.90;;;;;;;;;;5058287;28;20021;-39
2022/08/18 01:05:23;;;;;;;6.82;3.63;;;;;;;;;;5058390;28;20353;-39
2022/08/18 01:07:48;;;;;;;;;;;;;;;;;;5015696;28;20039;-39
2022/08/18 01:10:17;;;;;;;6.82;3.92;;;;;;;;;;5040264;28;20003;-39
2022/08/18 01:12:44;;;;;;;6.10;3.80;;;;;;;;;;5058513;28;20116;-39
2022/08/18 01:15:12;;;;;;;7.18;3.55;;;;;;;;;;5058257;28;20028;-39
2022/08/18 01:23:39;;;;;;;8.50;3.92;;;;;;;;;;5055185;28;20397;-39
2022/08/18 01:26:05;;;;;;;6.43;3.90;;;;;;;;;;5055027;28;20025;-38
2022/08/18 01:28:37;;;;;;;5.03;3.72;;;;;;;;;;5055032;28;20036;-39
2022/08/18 01:31:04;;;;;;;4.32;3.83;;;;;;;;;;5055196;28;20389;-40
2022/08/18 01:33:37;;;;;;;4.82;3.85;;;;;;;;;;5054977;28;20033;-41
2022/08/18 01:36:16;;;;;;;6.07;3.40;;;;;;;;;;5054606;28;20473;-39
2022/08/18 01:38:50;;;;;;;6.53;3.42;;;;;;;;;;5054775;28;20028;-39
2022/08/18 01:41:17;;;;;;;4.47;3.90;;;;;;;;;;5054770;28;20109;-39
2022/08/18 01:43:45;;;;;;;5.88;4.18;;;;;;;;;;5054825;28;20487;-39
2022/08/18 01:46:11;;;;;;;6.60;3.65;;;;;;;;;;5054589;28;20065;-39
2022/08/18 01:48:38;;;;;;;6.70;5.15;;;;;;;;;;5054626;28;20029;-39
2022/08/18 01:51:06;;;;;;;6.93;4.15;;;;;;;;;;5054543;28;20171;-40
2022/08/18 01:53:32;;;;;;;5.90;3.60;;;;;;;;;;5054688;28;20024;-39
2022/08/18 01:55:58;;;;;;;6.40;3.53;;;;;;;;;;5054501;28;20104;-41
2022/08/18 01:58:26;;;;;;;6.30;3.70;;;;;;;;;;5054307;28;20083;-39
2022/08/18 02:00:56;;;;;;;4.10;3.45;;;;;;;;;;5054395;28;20032;-38
2022/08/18 02:03:25;;;;;;;4.65;3.70;;;;;;;;;;5036401;28;20500;-39
2022/08/18 02:05:56;;;;;;;5.50;3.83;;;;;;;;;;5054529;28;20108;-39
2022/08/18 02:08:22;;;;;;;8.30;4.18;;;;;;;;;;5054171;28;20025;-40
2022/08/18 02:10:47;;;;;;;8.73;4.10;;;;;;;;;;5054197;28;20423;-39
2022/08/18 02:13:13;;;;;;;8.00;4.05;;;;;;;;;;5054361;28;20064;-39
2022/08/18 02:15:39;;;;;;;9.75;4.00;;;;;;;;;;5054400;28;20491;-39
2022/08/18 02:18:04;;;;;;;9.23;4.28;;;;;;;;;;5053990;28;20029;-39
2022/08/18 02:20:30;;;;;;;5.50;4.40;;;;;;;;;;5054259;28;20029;-39
2022/08/18 02:22:57;;;;;;;8.88;4.30;;;;;;;;;;5054082;28;20114;-39
2022/08/18 02:25:23;;;;;;;5.57;4.15;;;;;;;;;;5054108;28;20025;-39
2022/08/18 02:27:49;;;;;;;5.30;3.75;;;;;;;;;;5053771;28;20025;-40
2022/08/18 02:30:16;;;;;;;8.50;3.95;;;;;;;;;;5053595;28;20021;-38
2022/08/18 02:32:42;;;;;;;7.28;4.22;;;;;;;;;;5035711;28;20089;-40
2022/08/18 02:35:08;;;;;;;6.20;4.25;;;;;;;;;;5053951;28;20025;-40
2022/08/18 02:37:34;;;;;;;7.85;3.72;;;;;;;;;;5053368;28;20040;-39
2022/08/18 02:39:59;;;;;;;4.43;3.47;;;;;;;;;;5053650;28;20033;-39
2022/08/18 02:42:27;;;;;;;4.40;3.60;;;;;;;;;;5053517;28;20490;-39
2022/08/18 02:44:52;;;;;;;6.47;4.93;;;;;;;;;;5053554;28;20103;-39
2022/08/18 02:47:19;;;;;;;4.40;3.60;;;;;;;;;;5053455;28;20059;-38
2022/08/18 02:49:45;;;;;;;7.13;3.75;;;;;;;;;;5053447;28;20036;-39
2022/08/18 02:52:10;;;;;;;4.43;3.42;;;;;;;;;;5053639;28;20024;-39
2022/08/18 02:54:36;;;;;;;11.38;4.03;;;;;;;;;;5053416;28;20027;-39
2022/08/18 02:57:06;;;;;;;7.05;3.80;;;;;;;;;;5053545;28;20098;-39
2022/08/18 02:59:32;;;;;;;5.82;3.58;;;;;;;;;;5053361;28;20021;-39
2022/08/18 03:01:58;;;;;;;6.32;4.00;;;;;;;;;;5053222;28;20032;-38
2022/08/18 03:04:26;;;;;;;5.82;4.20;;;;;;;;;;5053078;28;20035;-38
2022/08/18 03:06:53;;;;;;;8.00;4.20;;;;;;;;;;5053091;28;20075;-38
2022/08/18 03:09:19;;;;;;;7.63;4.50;;;;;;;;;;5053368;28;20055;-39
2022/08/18 03:11:46;;;;;;;7.47;4.32;;;;;;;;;;5053031;28;20056;-39
2022/08/18 03:14:12;;;;;;;4.78;3.78;;;;;;;;;;5053054;28;20039;-39
2022/08/18 03:16:44;;;;;;;7.47;4.35;;;;;;;;;;5053190;28;20021;-39
2022/08/18 03:19:09;;;;;;;5.03;3.78;;;;;;;;;;5052986;28;20094;-39
2022/08/18 03:21:36;;;;;;;7.38;4.30;;;;;;;;;;5052843;28;20028;-41
2022/08/18 03:24:04;;;;;;;8.70;4.13;;;;;;;;;;5052686;28;20037;-39
2022/08/18 03:26:31;;;;;;;7.68;3.92;;;;;;;;;;5052729;28;20036;-38
2022/08/18 03:28:58;;;;;;;9.20;4.05;;;;;;;;;;5052740;28;20075;-38
2022/08/18 03:31:26;;;;;;;6.53;3.95;;;;;;;;;;5052707;28;20434;-38
2022/08/18 03:33:53;;;;;;;6.05;4.18;;;;;;;;;;5034853;28;20039;-38
2022/08/18 03:36:25;;;;;;;5.85;4.43;;;;;;;;;;5052466;28;20493;-38
2022/08/18 03:38:51;;;;;;;8.82;4.47;;;;;;;;;;5052585;28;20029;-40
2022/08/18 03:41:21;;;;;;;5.25;4.28;;;;;;;;;;5052134;28;20075;-38
2022/08/18 03:43:47;;;;;;;10.68;4.60;;;;;;;;;;5052671;28;20037;-39
2022/08/18 03:46:14;;;;;;;5.07;4.20;;;;;;;;;;5052419;28;20460;-39
2022/08/18 03:48:42;;;;;;;5.72;4.22;;;;;;;;;;5052447;28;20036;-40
2022/08/18 03:51:18;;;;;;;7.65;4.25;;;;;;;;;;5034675;28;20033;-39
2022/08/18 03:53:47;;;;;;;8.55;3.88;;;;;;;;;;5052356;28;20673;-39
2022/08/18 03:56:20;;;;;;;8.70;5.03;;;;;;;;;;5052221;28;20033;-39
2022/08/18 03:58:49;;;;;;;7.13;4.07;;;;;;;;;;5052248;28;20115;-39
2022/08/18 04:01:16;;;;;;;11.63;3.92;;;;;;;;;;5052256;28;20027;-39
2022/08/18 04:03:46;;;;;;;14.32;4.15;;;;;;;;;;5052086;28;20491;-39
2022/08/18 04:06:23;;;;;;;6.25;3.72;;;;;;;;;;5052396;28;20087;-39
2022/08/18 04:08:53;;;;;;;10.15;3.90;;;;;;;;;;5052244;28;20029;-40
2022/08/18 04:11:19;;;;;;;4.25;3.40;;;;;;;;;;5052552;28;20389;-39
2022/08/18 04:13:45;;;;;;;7.20;3.50;;;;;;;;;;5052191;28;20029;-39
2022/08/18 04:16:12;;;;;;;3.60;3.30;;;;;;;;;;5052187;28;20481;-39
2022/08/18 04:18:37;;;;;;;5.07;3.63;;;;;;;;;;5052052;28;20078;-39
2022/08/18 04:21:08;;;;;;;5.60;3.53;;;;;;;;;;5052118;28;20104;-40
2022/08/18 04:23:38;;;;;;;5.00;3.55;;;;;;;;;;5051998;28;20029;-41
2022/08/18 04:26:05;;;;;;;10.73;3.73;;;;;;;;;;5052384;28;20056;-41
2022/08/18 04:28:31;;;;;;;8.95;4.03;;;;;;;;;;5051934;28;20037;-40
2022/08/18 04:30:58;;;;;;;5.40;4.22;;;;;;;;;;5052013;28;20032;-40
2022/08/18 04:33:27;;;;;;;8.35;3.53;;;;;;;;;;5052285;28;20036;-41
2022/08/18 04:35:54;;;;;;;4.83;3.03;;;;;;;;;;5052139;28;20036;-40
2022/08/18 04:38:20;;;;;;;6.05;3.55;;;;;;;;;;5051817;28;20028;-42
2022/08/18 04:40:46;;;;;;;6.85;3.72;;;;;;;;;;5051837;28;20036;-41
2022/08/18 04:43:14;;;;;;;5.75;3.45;;;;;;;;;;5052047;28;20037;-39
2022/08/18 04:45:46;;;;;;;8.32;3.88;;;;;;;;;;5051885;28;20032;-40
2022/08/18 04:48:14;;;;;;;5.30;3.20;;;;;;;;;;5051852;28;20486;-40
2022/08/18 04:50:40;;;;;;;9.88;3.33;;;;;;;;;;5052034;28;20380;-40
2022/08/18 04:55:52;;;;;;;7.50;3.67;;;;;;;;;;5055913;28;20035;-40
2022/08/18 04:58:19;;;;;;;10.75;4.60;;;;;;;;;;5055558;28;20017;-40
2022/08/18 05:00:45;;;;;;;9.48;4.65;;;;;;;;;;5055410;28;20025;-42
2022/08/18 05:03:12;;;;;;;8.65;4.85;;;;;;;;;;5055681;28;20075;-40
2022/08/18 05:05:37;;;;;;;11.30;3.92;;;;;;;;;;5055373;28;20031;-40
2022/08/18 05:08:03;;;;;;;14.07;4.00;;;;;;;;;;5055294;28;20025;-42
2022/08/18 05:10:28;;;;;;;22.25;4.78;;;;;;;;;;5037209;28;20451;-40
2022/08/18 05:12:54;;;;;;;9.40;3.75;;;;;;;;;;5055261;28;20053;-40
2022/08/18 05:15:20;;;;;;;18.10;4.65;;;;;;;;;;5055204;28;20017;-40
2022/08/18 05:17:46;;;;;;;10.95;3.72;;;;;;;;;;5055380;28;20082;-40
2022/08/18 05:20:11;;;;;;;7.43;3.88;;;;;;;;;;5055395;28;20358;-40
2022/08/18 05:22:39;;;;;;;9.95;3.50;;;;;;;;;;5055009;28;20394;-40
2022/08/18 05:25:06;;;;;;;9.10;3.67;;;;;;;;;;5055036;28;20025;-40
2022/08/18 05:27:34;;;;;;;13.27;4.05;;;;;;;;;;5054939;28;20036;-42
2022/08/18 05:30:01;;;;;;;9.52;3.53;;;;;;;;;;5054813;28;20466;-42
2022/08/18 05:32:30;;;;;;;6.63;3.30;;;;;;;;;;5054824;28;20021;-40
2022/08/18 05:34:56;;;;;;;7.53;4.45;;;;;;;;;;5054309;28;20083;-43
2022/08/18 05:37:38;;;;;;;7.93;3.83;;;;;;;;;;5053172;28;20041;-45
2022/08/18 05:40:07;;;;;;;10.63;4.05;;;;;;;;;;5054084;28;20041;-40
2022/08/18 05:42:37;;;;;;;6.22;3.75;;;;;;;;;;5053750;28;20029;-41
2022/08/18 05:45:09;;;;;;;10.20;3.92;;;;;;;;;;5053459;28;20021;-41
2022/08/18 05:47:35;;;;;;;14.05;3.92;;;;;;;;;;5052727;28;20506;-43
2022/08/18 05:50:10;;;;;;;11.07;3.58;;;;;;;;;;5052836;28;20111;-41
2022/08/18 05:52:41;;;;;;;7.28;3.60;;;;;;;;;;5052578;28;20489;-44
2022/08/18 05:58:37;;;;;;;6.50;3.08;;;;;;;;;;5052857;28;20056;-41
2022/08/18 06:01:10;;;;;;;10.65;3.50;;;;;;;;;;5053138;28;20028;-42
2022/08/18 06:03:45;;;;;;;10.52;3.60;;;;;;;;;;5054167;28;20029;-40
2022/08/18 06:06:17;;;;;;;7.57;3.35;;;;;;;;;;5053764;28;20029;-42
2022/08/18 06:08:47;;;;;;;5.30;3.22;;;;;;;;;;5054310;28;20032;-41
2022/08/18 06:11:12;;;;;;;13.68;4.07;;;;;;;;;;5036175;28;20063;-41
2022/08/18 06:13:41;;;;;;;8.50;3.40;;;;;;;;;;5052749;28;20060;-41
2022/08/18 06:16:15;;;;;;;6.18;3.17;;;;;;;;;;5051482;28;20033;-43
2022/08/18 06:19:16;;;;;;;7.22;3.28;;;;;;;;;;5052201;28;20063;-40
2022/08/18 06:22:10;;;;;;;9.68;3.80;;;;;;;;;;5053887;28;20021;-42
2022/08/18 06:24:49;;;;;;;8.57;3.05;;;;;;;;;;5053010;28;20044;-40
2022/08/18 06:27:31;;;;;;;7.80;3.28;;;;;;;;;;5053043;28;20025;-41
2022/08/18 06:30:26;;;;;;;7.88;3.67;;;;;;;;;;5054067;28;20033;-40
2022/08/18 06:33:15;;;;;;;7.43;3.40;;;;;;;;;;5045428;28;20048;-42
2022/08/18 06:35:52;;;;;;;4.47;3.10;;;;;;;;;;5053773;28;20025;-41
2022/08/18 06:38:37;;;;;;;3.33;2.90;;;;;;;;;;5053537;28;20094;-44
2022/08/18 06:41:19;;;;;;;8.02;3.35;;;;;;;;;;5053606;28;20033;-41
2022/08/18 06:43:58;;;;;;;4.75;2.97;;;;;;;;;;5045855;28;20380;-41
2022/08/18 06:46:44;;;;;;;6.35;3.10;;;;;;;;;;5051991;28;20032;-45
2022/08/18 06:49:37;;;;;;;5.30;2.63;;;;;;;;;;5051861;28;20039;-44
2022/08/18 06:52:20;;;;;;;4.35;2.72;;;;;;;;;;5051368;28;20040;-44
2022/08/18 06:54:47;;;;;;;9.27;2.60;;;;;;;;;;5051202;28;20373;-48
2022/08/18 06:57:29;;;;;;;5.10;2.75;;;;;;;;;;5051786;28;20096;-44
2022/08/18 07:00:03;;;;;;;4.88;2.90;;;;;;;;;;5051740;28;20072;-40
2022/08/18 07:02:57;;;;;;;8.93;2.55;;;;;;;;;;5050845;28;20029;-40
2022/08/18 07:05:30;;;;;;;3.38;2.58;;;;;;;;;;5051542;28;20037;-44
2022/08/18 07:08:09;;;;;;;3.58;2.50;;;;;;;;;;5051275;28;20096;-40
2022/08/18 07:10:47;;;;;;;10.00;2.90;;;;;;;;;;5051625;28;20040;-41
2022/08/18 07:13:28;;;;;;;6.45;2.75;;;;;;;;;;5051273;28;20266;-39
2022/08/18 07:16:13;;;;;;;4.32;2.65;;;;;;;;;;5051273;28;20085;-40
2022/08/18 07:18:39;;;;;;;6.97;2.75;;;;;;;;;;5050992;28;20590;-40
2022/08/18 07:21:04;;;;;;;3.80;2.60;;;;;;;;;;5051212;28;20115;-40
2022/08/18 07:23:37;;;;;;;5.65;2.50;;;;;;;;;;5051006;28;20463;-42
2022/08/18 07:26:05;;;;;;;84.38;7.13;;;;;;;;;;5050947;28;20107;-40
2022/08/18 07:29:00;;;;;;;13.90;3.00;;;;;;;;;;5050988;28;20121;-44
2022/08/18 07:31:41;;;;;;;5.50;2.78;;;;;;;;;;5049192;28;20040;-42
2022/08/18 07:34:39;;;;;;;10.00;2.90;;;;;;;;;;5051225;28;20040;-43
2022/08/18 07:37:23;;;;;;;8.68;2.95;;;;;;;;;;5050761;28;20057;-45
2022/08/18 07:39:54;;;;;;;17.17;3.40;;;;;;;;;;5050806;28;20508;-41
2022/08/18 07:42:35;;;;;;;7.03;2.67;;;;;;;;;;5050819;28;20025;-42
2022/08/18 07:45:03;;;;;;;8.45;2.80;;;;;;;;;;5050819;28;20416;-39
2022/08/18 07:47:44;;;;;;;5.68;2.53;;;;;;;;;;5050776;28;20028;-39
2022/08/18 07:50:10;;;;;;;15.07;2.83;;;;;;;;;;5050259;28;20116;-42
2022/08/18 07:52:59;;;;;;;8.25;2.65;;;;;;;;;;5050600;28;20029;-43
2022/08/18 07:55:31;;;;;;;25.42;3.13;;;;;;;;;;5050359;28;20107;-40
2022/08/18 07:58:12;;;;;;;8.80;2.78;;;;;;;;;;5050429;28;20044;-41
2022/08/18 08:00:50;;;;;;;7.68;2.65;;;;;;;;;;5050764;28;20032;-40
2022/08/18 08:03:25;;;;;;;10.85;2.58;;;;;;;;;;5050628;28;20079;-41
2022/08/18 08:05:56;;;;;;;8.80;2.70;;;;;;;;;;5050875;28;20056;-42
2022/08/18 08:08:21;;;;;;;13.00;3.08;;;;;;;;;;5050613;28;20036;-44
2022/08/18 08:11:06;;;;;;;6.72;2.60;;;;;;;;;;5050530;28;20487;-42
2022/08/18 08:13:53;;;;;;;2.30;2.10;;;;;;;;;;5050494;28;20033;-40
2022/08/18 08:16:30;;;;;;;5.90;2.50;;;;;;;;;;5050702;28;20029;-47
2022/08/18 08:19:08;;;;;;;5.78;2.30;;;;;;;;;;5050440;28;20135;-40
2022/08/18 08:21:42;;;;;;;4.65;2.30;;;;;;;;;;5050468;28;20036;-41
2022/08/18 08:24:22;;;;;;;11.18;2.58;;;;;;;;;;5050574;28;20052;-43
2022/08/18 08:27:00;;;;;;;9.10;2.40;;;;;;;;;;5050705;28;20026;-49
2022/08/18 08:29:44;;;;;;;;;;;;;;;;;;5054191;28;20033;-43
2022/08/18 08:32:33;;;;;;;7.18;2.45;;;;;;;;;;5053983;28;19913;-40
2022/08/18 08:35:05;;;;;;;5.43;2.40;;;;;;;;;;5054341;28;20033;-41
2022/08/18 08:37:42;;;;;;;5.78;2.50;;;;;;;;;;5054030;28;20103;-43
2022/08/18 08:40:21;;;;;;;5.45;2.70;;;;;;;;;;5054153;28;20056;-43
2022/08/18 08:43:02;;;;;;;4.35;2.67;;;;;;;;;;5054176;28;20017;-43
2022/08/18 08:45:34;;;;;;;6.90;2.65;;;;;;;;;;5054120;28;20029;-41
2022/08/18 08:48:11;;;;;;;12.32;2.92;;;;;;;;;;5054181;28;20655;-43
2022/08/18 08:51:09;;;;;;;6.68;2.40;;;;;;;;;;5053780;28;20033;-40
2022/08/18 08:53:46;;;;;;;8.50;2.78;;;;;;;;;;5033544;28;20044;-42
2022/08/18 08:56:14;;;;;;;6.07;2.85;;;;;;;;;;5036910;28;20045;-43
2022/08/18 08:58:55;;;;;;;6.47;2.88;;;;;;;;;;5035874;28;20461;-41
2022/08/18 09:01:26;;;;;;;7.10;2.45;;;;;;;;;;5054189;28;20025;-45
2022/08/18 09:04:02;;;;;;;11.38;2.70;;;;;;;;;;5053854;28;20033;-40
2022/08/18 09:06:30;;;;;;;9.23;2.55;;;;;;;;;;5053754;28;20021;-41
2022/08/18 09:09:05;;;;;;;;;;;;;;;;;;5053813;28;20468;-44
2022/08/18 09:11:33;;;;;;;11.65;2.90;;;;;;;;;;5053580;28;20019;-43
2022/08/18 09:14:29;;;;;;;9.15;2.50;;;;;;;;;;5053788;28;20056;-42
2022/08/18 09:17:11;;;;;;;18.55;2.97;;;;;;;;;;5053561;28;20048;-41
2022/08/18 09:20:24;;;;;;;8.15;2.50;;;;;;;;;;5052965;28;20033;-46
2022/08/18 09:23:04;;;;;;;6.47;2.03;;;;;;;;;;5031520;28;20507;-41
2022/08/18 09:25:50;;;;;;;5.95;2.10;;;;;;;;;;5053696;28;20029;-41
2022/08/18 09:28:27;;;;;;;4.60;2.28;;;;;;;;;;5053171;28;20029;-42
2022/08/18 09:31:14;;;;;;;6.82;2.20;;;;;;;;;;5052634;28;20029;-40
2022/08/18 09:33:40;;;;;;;3.43;2.00;;;;;;;;;;5052871;28;20025;-41
2022/08/18 09:36:06;;;;;;;2.60;1.90;;;;;;;;;;5053344;28;20741;-40
2022/08/18 09:41:31;;;;;;;4.72;2.20;;;;;;;;;;5052287;28;20051;-39
2022/08/18 09:44:13;;;;;;;4.88;2.17;;;;;;;;;;5052760;28;20440;-42
2022/08/18 09:46:41;;;;;;;13.98;2.60;;;;;;;;;;5053088;28;20025;-42
2022/08/18 09:49:37;;;;;;;11.18;2.25;;;;;;;;;;5053219;28;20084;-40
2022/08/18 09:52:21;;;;;;;8.45;2.25;;;;;;;;;;5052798;28;20749;-44
2022/08/18 09:54:58;;;;;;;7.93;2.30;;;;;;;;;;5053064;28;20519;-40
2022/08/18 09:57:24;;;;;;;6.20;2.00;;;;;;;;;;5052605;28;20087;-41
2022/08/18 09:59:55;;;;;;;8.40;1.98;;;;;;;;;;5052661;28;20477;-41
2022/08/18 10:02:32;;;;;;;7.07;2.13;;;;;;;;;;5052455;28;20112;-43
2022/08/18 10:05:16;;;;;;;4.55;2.50;;;;;;;;;;5052976;28;20040;-42
2022/08/18 10:07:55;;;;;;;3.17;2.10;;;;;;;;;;5052594;28;20485;-44
2022/08/18 10:10:48;;;;;;;7.15;2.00;;;;;;;;;;5034766;28;20028;-42
2022/08/18 10:13:52;;;;;;;4.00;2.15;;;;;;;;;;5052723;28;20029;-42
2022/08/18 10:16:22;;;;;;;2.65;2.00;;;;;;;;;;4997299;28;20037;-42
2022/08/18 10:18:53;;;;;;;4.38;2.00;;;;;;;;;;5052638;28;20021;-43
2022/08/18 10:21:27;;;;;;;3.83;1.80;;;;;;;;;;5052317;28;20078;-40
2022/08/18 10:24:12;;;;;;;5.40;2.22;;;;;;;;;;5052230;28;20029;-40
2022/08/18 10:26:37;;;;;;;7.45;2.17;;;;;;;;;;5052671;28;20108;-39
2022/08/18 10:29:07;;;;;;;3.95;2.13;;;;;;;;;;5052269;28;20480;-40
2022/08/18 10:32:00;;;;;;;13.63;2.35;;;;;;;;;;5052301;28;20383;-41
2022/08/18 10:34:46;;;;;;;5.18;2.30;;;;;;;;;;5052239;28;20060;-39
2022/08/18 10:37:17;;;;;;;6.75;2.13;;;;;;;;;;5051880;28;20036;-38
2022/08/18 10:39:50;;;;;;;3.95;2.10;;;;;;;;;;5052078;28;20361;-38
2022/08/18 10:42:27;;;;;;;8.95;2.85;;;;;;;;;;5052226;28;20472;-38
2022/08/18 10:45:18;;;;;;;3.70;2.40;;;;;;;;;;5051971;28;20028;-42
2022/08/18 10:48:12;;;;;;;3.83;2.00;;;;;;;;;;5052280;28;20041;-41
2022/08/18 10:50:52;;;;;;;5.00;2.35;;;;;;;;;;5051725;28;20032;-40
2022/08/18 10:53:17;;;;;;;4.78;2.13;;;;;;;;;;5051937;28;20029;-37
2022/08/18 10:55:59;;;;;;;5.70;2.10;;;;;;;;;;5051556;28;20101;-37
2022/08/18 10:58:31;;;;;;;10.77;2.38;;;;;;;;;;5051571;28;20029;-38
2022/08/18 11:01:31;;;;;;;5.30;2.15;;;;;;;;;;5051548;28;20662;-38
2022/08/18 11:04:23;;;;;;;5.43;1.90;;;;;;;;;;5051513;28;20035;-41
2022/08/18 11:06:52;;;;;;;6.35;2.10;;;;;;;;;;5051524;28;20071;-42
2022/08/18 11:09:24;;;;;;;9.13;2.28;;;;;;;;;;5051557;28;20436;-40
2022/08/18 11:11:51;;;;;;;12.45;2.78;;;;;;;;;;5051197;28;20056;-39
2022/08/18 11:14:58;;;;;;;5.80;2.05;;;;;;;;;;5051339;28;20538;-38
2022/08/18 11:17:45;;;;;;;7.97;2.10;;;;;;;;;;5051376;28;20420;-39
2022/08/18 11:20:13;;;;;;;6.22;2.65;;;;;;;;;;5051510;28;20061;-38
2022/08/18 11:22:52;;;;;;;12.60;2.33;;;;;;;;;;5050898;28;20512;-38
2022/08/18 11:25:33;;;;;;;9.07;2.30;;;;;;;;;;5034256;28;20312;-39
2022/08/18 11:28:00;;;;;;;8.88;2.63;;;;;;;;;;5033460;28;20381;-41
2022/08/18 11:30:30;;;;;;;11.85;2.08;;;;;;;;;;5051055;28;20431;-41
2022/08/18 11:32:57;;;;;;;6.80;2.13;;;;;;;;;;5032523;28;20170;-41
2022/08/18 11:35:30;;;;;;;10.75;2.90;;;;;;;;;;5050912;28;20028;-38
2022/08/18 11:38:02;;;;;;;17.60;3.22;;;;;;;;;;5050832;28;20106;-39
2022/08/18 11:40:39;;;;;;;12.10;2.90;;;;;;;;;;5050882;28;20025;-38
2022/08/18 11:43:13;;;;;;;11.00;2.42;;;;;;;;;;5050746;28;20064;-39
2022/08/18 11:45:51;;;;;;;7.30;2.13;;;;;;;;;;5032906;28;20053;-38
2022/08/18 11:48:23;;;;;;;3.40;2.42;;;;;;;;;;5050975;28;20068;-38
2022/08/18 11:51:08;;;;;;;15.07;3.25;;;;;;;;;;5050645;28;20063;-39
2022/08/18 11:53:38;;;;;;;12.98;2.80;;;;;;;;;;5050819;28;20472;-37
2022/08/18 11:56:23;;;;;;;8.93;2.35;;;;;;;;;;5050693;28;20473;-38
2022/08/18 11:58:54;;;;;;;6.03;2.08;;;;;;;;;;5050650;28;20074;-39
2022/08/18 12:01:32;;;;;;;5.70;2.17;;;;;;;;;;5050384;28;20029;-38
2022/08/18 12:04:15;;;;;;;12.70;2.38;;;;;;;;;;5050023;28;20029;-41
2022/08/18 12:06:58;;;;;;;7.75;2.83;;;;;;;;;;5050743;28;20056;-38
2022/08/18 12:09:35;;;;;;;5.50;2.38;;;;;;;;;;5050486;28;20104;-38
2022/08/18 12:12:14;;;;;;;7.40;2.40;;;;;;;;;;5050393;28;20054;-40
2022/08/18 12:15:22;;;;;;;6.57;2.40;;;;;;;;;;5050782;28;20390;-38
2022/08/18 12:17:48;;;;;;;8.40;2.78;;;;;;;;;;5050504;28;20025;-38
2022/08/18 12:20:15;;;;;;;11.25;2.60;;;;;;;;;;5050803;28;20033;-38
2022/08/18 12:22:42;;;;;;;10.48;2.25;;;;;;;;;;5050453;28;20025;-39
2022/08/18 12:25:11;;;;;;;11.23;2.78;;;;;;;;;;5050318;28;20025;-38
2022/08/18 12:27:36;;;;;;;6.95;2.58;;;;;;;;;;5032375;28;20372;-38
2022/08/18 12:30:03;;;;;;;12.45;3.53;;;;;;;;;;5050447;28;20029;-39
2022/08/18 12:32:32;;;;;;;9.98;2.60;;;;;;;;;;5049911;28;20033;-39
2022/08/18 12:34:58;;;;;;;11.95;2.40;;;;;;;;;;5050287;28;20060;-38
2022/08/18 12:37:26;;;;;;;5.03;2.42;;;;;;;;;;5050042;28;20049;-39
2022/08/18 12:39:52;;;;;;;10.15;2.35;;;;;;;;;;5050205;28;20044;-40
2022/08/18 12:42:18;;;;;;;6.65;2.38;;;;;;;;;;5032225;28;20504;-40
2022/08/18 12:44:45;;;;;;;10.95;2.08;;;;;;;;;;5050103;28;20033;-39
2022/08/18 12:47:14;;;;;;;4.63;2.30;;;;;;;;;;5050508;28;20025;-39
2022/08/18 12:49:40;;;;;;;8.15;2.80;;;;;;;;;;5050433;28;20052;-40
2022/08/18 12:52:06;;;;;;;7.03;2.47;;;;;;;;;;5050059;28;20424;-39
2022/08/18 12:54:34;;;;;;;9.45;2.20;;;;;;;;;;5050262;28;20033;-40
2022/08/18 12:57:01;;;;;;;7.95;2.58;;;;;;;;;;5050464;28;20028;-39
2022/08/18 12:59:26;;;;;;;10.65;2.50;;;;;;;;;;5032139;28;20452;-38
2022/08/18 13:01:52;;;;;;;10.10;2.63;;;;;;;;;;5049868;28;20039;-39
2022/08/18 13:04:18;;;;;;;8.70;2.35;;;;;;;;;;5050051;28;20065;-41
2022/08/18 13:06:49;;;;;;;6.03;2.80;;;;;;;;;;5050190;28;20032;-38
2022/08/18 13:09:14;;;;;;;17.98;2.65;;;;;;;;;;5050132;28;20412;-39
2022/08/18 13:11:40;;;;;;;11.00;2.15;;;;;;;;;;5049815;28;20039;-39
2022/08/18 13:14:06;;;;;;;4.88;2.25;;;;;;;;;;5050101;28;20125;-38
2022/08/18 13:16:34;;;;;;;9.07;2.30;;;;;;;;;;5052909;28;20124;-38
2022/08/18 13:19:01;;;;;;;11.37;2.57;;;;;;;;;;5053496;28;20078;-38
2022/08/18 13:21:27;;;;;;;7.65;2.67;;;;;;;;;;5035522;28;20041;-40
2022/08/18 13:23:53;;;;;;;10.85;2.80;;;;;;;;;;5053362;28;20472;-41
2022/08/18 13:26:28;;;;;;;21.23;2.83;;;;;;;;;;5053407;28;20029;-38
2022/08/18 13:28:54;;;;;;;17.52;3.08;;;;;;;;;;5053239;28;20389;-39
2022/08/18 13:31:19;;;;;;;5.65;2.10;;;;;;;;;;5053183;28;20024;-38
2022/08/18 13:33:45;;;;;;;13.30;2.60;;;;;;;;;;5053250;28;20033;-38
2022/08/18 13:36:11;;;;;;;12.73;2.78;;;;;;;;;;5053034;28;20548;-38
2022/08/18 13:38:41;;;;;;;10.15;2.80;;;;;;;;;;5053156;28;20025;-39
2022/08/18 13:41:07;;;;;;;10.75;2.45;;;;;;;;;;5053206;28;20044;-38
2022/08/18 13:43:36;;;;;;;13.98;2.20;;;;;;;;;;5053107;28;20028;-38
2022/08/18 13:46:04;;;;;;;4.80;2.03;;;;;;;;;;5053351;28;20111;-56
2022/08/18 13:48:30;;;;;;;8.82;2.72;;;;;;;;;;5052744;28;20112;-56
2022/08/18 13:50:57;;;;;;;8.70;2.42;;;;;;;;;;5053163;28;20032;-55
2022/08/18 13:53:25;;;;;;;13.07;2.60;;;;;;;;;;5053070;28;20029;-53
2022/08/18 13:55:51;;;;;;;6.93;2.30;;;;;;;;;;5052872;28;20025;-54
2022/08/18 13:58:17;;;;;;;5.47;2.50;;;;;;;;;;5052924;28;20064;-55
2022/08/18 14:00:44;;;;;;;6.63;2.35;;;;;;;;;;5052735;28;20025;-57
2022/08/18 14:03:10;;;;;;;12.00;2.65;;;;;;;;;;5052499;28;20645;-55
2022/08/18 14:05:35;;;;;;;5.53;2.47;;;;;;;;;;5052492;28;20025;-55
2022/08/18 14:08:02;;;;;;;5.72;2.60;;;;;;;;;;5052706;28;20504;-56
2022/08/18 14:10:28;;;;;;;7.15;2.67;;;;;;;;;;5052439;28;20515;-55
2022/08/18 14:12:56;;;;;;;7.93;2.65;;;;;;;;;;5052564;28;20029;-56
2022/08/18 14:15:22;;;;;;;6.57;2.38;;;;;;;;;;5052380;28;20033;-56
2022/08/18 14:17:48;;;;;;;5.20;2.38;;;;;;;;;;5052659;28;20055;-54
2022/08/18 14:28:29;;;;;;;7.68;2.28;;;;;;;;;;5052510;28;20044;-56
2022/08/18 14:30:56;;;;;;;8.70;2.13;;;;;;;;;;5052403;28;20369;-55
2022/08/18 14:33:24;;;;;;;11.63;2.58;;;;;;;;;;5051854;28;20033;-55
2022/08/18 14:35:50;;;;;;;9.18;2.70;;;;;;;;;;5052133;28;20079;-56
2022/08/18 14:38:16;;;;;;;8.77;3.00;;;;;;;;;;5051829;28;20049;-55
2022/08/18 14:40:44;;;;;;;12.20;3.08;;;;;;;;;;5052150;28;20028;-55
2022/08/18 14:43:12;;;;;;;10.48;3.15;;;;;;;;;;5051661;28;20033;-56
2022/08/18 14:45:38;;;;;;;12.23;2.92;;;;;;;;;;5051890;28;20063;-56
2022/08/18 14:48:05;;;;;;;8.93;2.88;;;;;;;;;;5051648;28;20051;-55
2022/08/18 14:50:31;;;;;;;14.50;2.92;;;;;;;;;;5051756;28;20547;-54
2022/08/18 14:52:57;;;;;;;14.80;2.60;;;;;;;;;;5051733;28;20028;-55
2022/08/18 14:55:22;;;;;;;14.30;3.15;;;;;;;;;;5051746;28;20021;-51
2022/08/18 14:57:48;;;;;;;11.32;2.83;;;;;;;;;;5051699;28;20037;-55
2022/08/18 15:00:16;;;;;;;11.23;2.60;;;;;;;;;;5051768;28;20033;-56
2022/08/18 15:02:44;;;;;;;12.15;2.47;;;;;;;;;;5051368;28;20032;-58
2022/08/18 15:05:11;;;;;;;8.82;3.00;;;;;;;;;;5051404;28;20033;-54
2022/08/18 15:07:36;;;;;;;9.95;2.78;;;;;;;;;;5051696;28;20044;-56
2022/08/18 15:10:07;;;;;;;9.98;2.70;;;;;;;;;;5050833;28;20025;-48
2022/08/18 15:12:33;;;;;;;11.95;2.03;;;;;;;;;;5051180;28;20051;-49
2022/08/18 15:14:59;;;;;;;6.22;2.20;;;;;;;;;;5051598;28;20029;-49
2022/08/18 15:17:28;;;;;;;9.82;2.42;;;;;;;;;;5033739;28;20381;-50
2022/08/18 15:19:54;;;;;;;7.03;2.25;;;;;;;;;;5051294;28;20021;-53
2022/08/18 15:27:50;;;;;;;8.75;2.67;;;;;;;;;;5051533;28;20036;-48
2022/08/18 15:30:17;;;;;;;10.30;2.30;;;;;;;;;;5051137;28;20055;-53
2022/08/18 15:32:44;;;;;;;9.38;2.53;;;;;;;;;;5050712;28;20389;-47
2022/08/18 15:35:15;;;;;;;8.65;2.58;;;;;;;;;;5051172;28;20566;-55
2022/08/18 15:37:41;;;;;;;12.07;2.63;;;;;;;;;;5032287;28;20401;-47